Time;durP1;ratioP1;P1;durP2;ratioP2;P2;SDS_P1;SDS_P2;PMS_P1;PMS_P2;Temp;Humidity;BMP_temperature;BMP_pressure;BME280_temperature;BME280_humidity;BME280_pressure;Samples;Min_cycle;Max_cycle;Signal;HPM_P1;HPM_P2
2022/01/30 00:00:00;;;;;;;8.30;5.25;;;;;;;6.14;65.76;102026.44;4973571;28;20142;-94
2022/01/30 00:02:57;;;;;;;9.15;5.20;;;;;;;6.06;66.39;102021.47;4994727;28;20030;-95
2022/01/30 00:05:27;;;;;;;9.40;5.35;;;;;;;6.06;65.84;102013.69;4992823;28;20506;-94
2022/01/30 00:07:58;;;;;;;10.02;5.43;;;;;;;5.90;66.25;101998.41;4994289;28;20065;-94
2022/01/30 00:10:55;;;;;;;8.07;5.03;;;;;;;6.07;66.06;102014.59;4960389;28;20137;-94
2022/01/30 00:13:40;;;;;;;8.73;5.53;;;;;;;6.02;66.14;102010.69;4974430;28;20038;-94
2022/01/30 00:19:42;;;;;;;9.00;5.60;;;;;;;5.72;66.03;101963.88;4989099;28;20116;-95
2022/01/30 00:22:43;;;;;;;9.38;5.93;;;;;;;5.88;66.49;101999.94;4992577;28;20046;-95
2022/01/30 00:25:59;;;;;;;9.52;5.72;;;;;;;5.97;66.11;101992.13;4996591;28;20026;-94
2022/01/30 00:28:32;;;;;;;9.93;6.03;;;;;;;5.83;66.33;101983.03;4979465;28;20489;-96
2022/01/30 00:31:27;;;;;;;8.85;6.05;;;;;;;5.99;66.26;101989.66;4975732;28;20026;-95
2022/01/30 00:33:54;;;;;;;8.60;5.88;;;;;;;5.83;66.69;101987.31;4992798;28;20501;-95
2022/01/30 00:39:43;;;;;;;10.80;6.50;;;;;;;5.94;66.00;101984.00;4974449;28;20061;-94
2022/01/30 00:45:49;;;;;;;9.48;6.22;;;;;;;5.87;66.50;101982.53;4990806;28;20073;-95
2022/01/30 00:48:35;;;;;;;11.27;6.13;;;;;;;5.83;66.73;101974.34;4975122;28;20082;-95
2022/01/30 00:51:05;;;;;;;8.20;5.78;;;;;;;5.73;66.23;101946.66;4975933;28;20513;-95
2022/01/30 00:54:10;;;;;;;8.55;5.90;;;;;;;5.97;65.90;101961.00;4975805;28;20521;-94
2022/01/30 00:56:58;;;;;;;8.50;6.00;;;;;;;5.95;66.24;101949.59;4992358;28;20461;-93
2022/01/30 00:59:42;;;;;;;9.25;5.78;;;;;;;5.91;66.10;101944.84;4990223;28;20486;-93
2022/01/30 01:02:15;;;;;;;8.80;5.82;;;;;;;5.76;65.99;101910.66;4992009;28;20105;-93
2022/01/30 01:05:17;;;;;;;8.65;5.80;;;;;;;5.94;66.34;101933.84;4992252;28;20085;-93
2022/01/30 01:08:10;;;;;;;9.75;5.75;;;;;;;5.96;66.41;101937.53;4975462;28;20038;-93
2022/01/30 01:10:57;;;;;;;9.15;5.82;;;;;;;5.51;66.21;101850.50;4993119;28;20192;-94
2022/01/30 01:25:42;;;;;;;8.00;5.78;;;;;;;5.92;66.33;101889.63;4982125;28;20054;-95
2022/01/30 01:28:49;;;;;;;8.20;5.45;;;;;;;5.81;66.68;101882.56;4972919;28;20034;-93
2022/01/30 01:31:34;;;;;;;10.93;5.57;;;;;;;5.87;66.31;101871.06;4973886;28;20486;-93
2022/01/30 01:37:34;;;;;;;10.35;6.07;;;;;;;5.62;66.44;101821.28;4973437;28;20046;-91
2022/01/30 01:40:06;;;;;;;8.80;5.65;;;;;;;5.42;66.39;101788.41;4994713;28;20045;-93
2022/01/30 01:42:35;;;;;;;8.85;5.70;;;;;;;5.62;66.52;101833.34;4991614;28;20387;-94
2022/01/30 01:45:26;;;;;;;6.93;5.07;;;;;;;5.60;67.36;101848.72;4992164;28;20027;-94
2022/01/30 01:48:02;;;;;;;11.43;6.20;;;;;;;5.53;66.43;101798.81;4986437;28;20034;-94
2022/01/30 01:50:53;;;;;;;9.45;5.68;;;;;;;5.80;66.56;101827.22;4976167;28;20057;-93
2022/01/30 01:53:41;;;;;;;8.02;5.40;;;;;;;5.77;66.61;101810.47;4992301;28;20038;-95
2022/01/30 01:56:19;;;;;;;9.48;5.28;;;;;;;5.77;66.68;101813.06;4975856;28;20030;-93
2022/01/30 01:58:47;;;;;;;9.23;5.97;;;;;;;5.78;66.11;101817.47;4978240;28;20038;-94
2022/01/30 02:01:49;;;;;;;9.70;5.88;;;;;;;5.79;66.13;101827.09;4979762;28;20034;-96
2022/01/30 02:04:27;;;;;;;9.07;6.32;;;;;;;5.69;66.38;101818.50;4980228;28;20130;-94
2022/01/30 02:10:30;;;;;;;9.80;6.57;;;;;;;5.73;66.36;101811.88;4980412;28;20498;-90
2022/01/30 02:25:46;;;;;;;8.20;5.80;;;;;;;5.65;66.06;101787.88;4995545;28;20130;-93
2022/01/30 02:28:54;;;;;;;8.48;5.40;;;;;;;5.58;66.47;101802.72;4995107;28;20041;-94
2022/01/30 02:34:42;;;;;;;8.20;5.50;;;;;;;5.56;66.10;101755.03;4997739;28;20118;-94
2022/01/30 02:37:16;;;;;;;9.60;6.28;;;;;;;5.48;66.47;101767.31;5000013;28;20148;-94
2022/01/30 02:40:06;;;;;;;9.30;5.70;;;;;;;5.77;65.93;101792.34;4994916;28;20069;-94
2022/01/30 02:42:50;;;;;;;9.60;6.10;;;;;;;5.49;65.77;101757.09;4993779;28;20129;-94
2022/01/30 02:45:18;;;;;;;9.40;5.90;;;;;;;5.52;66.09;101751.25;4961109;28;20034;-95
2022/01/30 02:51:12;;;;;;;9.80;6.10;;;;;;;5.64;65.95;101761.81;4995753;28;20061;-94
2022/01/30 02:56:59;;;;;;;8.82;5.95;;;;;;;5.44;66.01;101729.88;4976265;28;20066;-93
2022/01/30 03:00:06;;;;;;;9.67;6.00;;;;;;;5.65;66.41;101766.22;4977166;28;20022;-90
2022/01/30 03:02:39;;;;;;;9.90;6.45;;;;;;;5.61;66.35;101756.34;4994183;28;20273;-92
2022/01/30 03:05:23;;;;;;;10.55;6.20;;;;;;;5.35;66.98;101759.19;4977964;28;20592;-91
2022/01/30 03:08:03;;;;;;;9.65;5.70;;;;;;;5.05;67.03;101728.06;4977238;28;20018;-92
2022/01/30 03:14:09;;;;;;;9.43;6.05;;;;;;;5.32;66.29;101723.56;4975655;28;20041;-92
2022/01/30 03:17:12;;;;;;;10.23;6.30;;;;;;;5.59;66.26;101757.91;4974908;28;20034;-91
2022/01/30 03:19:43;;;;;;;10.13;6.43;;;;;;;5.17;66.90;101710.16;4985074;28;20038;-91
2022/01/30 03:22:09;;;;;;;9.88;6.30;;;;;;;5.11;66.72;101704.41;4991926;28;20047;-93
2022/01/30 03:25:32;;;;;;;10.55;6.22;;;;;;;5.25;67.17;101749.72;4995037;28;20030;-93
2022/01/30 03:28:00;;;;;;;9.70;6.15;;;;;;;5.35;67.29;101741.06;5004672;28;20042;-95
2022/01/30 03:30:42;;;;;;;11.05;6.35;;;;;;;5.17;66.88;101707.56;4982044;28;20098;-94
2022/01/30 03:33:48;;;;;;;9.95;6.63;;;;;;;5.25;67.82;101731.56;4994407;28;20510;-92
2022/01/30 03:36:15;;;;;;;10.05;6.45;;;;;;;4.83;67.33;101665.66;4993467;28;20034;-92
2022/01/30 03:38:44;;;;;;;10.95;6.28;;;;;;;5.15;67.65;101726.31;4977042;28;20034;-93
2022/01/30 03:41:15;;;;;;;11.60;6.53;;;;;;;5.02;66.80;101676.03;4977323;28;20061;-92
2022/01/30 03:43:44;;;;;;;8.52;5.97;;;;;;;5.27;67.10;101719.66;4977871;28;20409;-95
2022/01/30 03:46:15;;;;;;;8.50;5.78;;;;;;;5.13;67.52;101695.13;4980167;28;20030;-95
2022/01/30 03:48:42;;;;;;;8.55;5.95;;;;;;;5.28;67.47;101700.75;4983253;28;20138;-95
2022/01/30 03:51:30;;;;;;;8.68;5.43;;;;;;;5.41;66.41;101697.59;4983410;28;20026;-95
2022/01/30 03:54:01;;;;;;;;;;;;;;;5.53;66.63;101701.28;5001313;28;20061;-95
2022/01/30 03:56:42;;;;;;;9.52;6.00;;;;;;;5.11;67.08;101660.41;4999783;28;20444;-95
2022/01/30 03:59:28;;;;;;;8.88;5.60;;;;;;;5.26;67.06;101695.44;4977707;28;20033;-95
2022/01/30 04:02:17;;;;;;;10.23;5.70;;;;;;;5.39;66.77;101697.44;4977127;28;20038;-93
2022/01/30 04:04:47;;;;;;;9.85;6.18;;;;;;;5.07;67.04;101643.69;4992655;28;20133;-93
2022/01/30 04:07:36;;;;;;;10.50;5.45;;;;;;;5.29;67.17;101689.63;4977228;28;20457;-95
2022/01/30 04:10:05;;;;;;;9.68;5.85;;;;;;;5.06;67.63;101678.13;4976980;28;20034;-93
2022/01/30 04:13:22;;;;;;;10.02;5.90;;;;;;;5.40;67.03;101688.91;4976927;28;20419;-92
2022/01/30 04:16:42;;;;;;;10.88;5.88;;;;;;;5.21;67.55;101696.72;4989171;28;20062;-91
2022/01/30 04:19:40;;;;;;;8.68;5.80;;;;;;;5.16;67.27;101689.28;4987716;28;20484;-92
2022/01/30 04:22:06;;;;;;;10.13;5.72;;;;;;;5.14;67.33;101683.97;4973268;28;20038;-90
2022/01/30 04:27:38;;;;;;;11.27;6.05;;;;;;;4.90;67.31;101660.28;4982661;28;20050;-91
2022/01/30 04:33:26;;;;;;;8.23;5.55;;;;;;;4.74;67.16;101610.50;4994693;28;20073;-95
2022/01/30 04:36:07;;;;;;;12.40;6.43;;;;;;;5.34;66.62;101692.66;4976596;28;20033;-94
2022/01/30 04:38:53;;;;;;;11.38;6.78;;;;;;;5.26;66.75;101685.06;4992316;28;20067;-94
2022/01/30 04:54:13;;;;;;;8.30;6.20;;;;;;;4.86;67.44;101640.06;4993014;28;20037;-94
2022/01/30 05:05:46;;;;;;;10.75;6.25;;;;;;;5.23;66.65;101650.25;4992245;28;20068;-91
2022/01/30 05:08:15;;;;;;;9.90;5.68;;;;;;;5.20;66.86;101660.31;4991671;28;20034;-90
2022/01/30 05:10:41;;;;;;;9.93;6.05;;;;;;;5.04;66.59;101612.34;4975386;28;20413;-90
2022/01/30 05:13:12;;;;;;;9.80;6.03;;;;;;;5.17;66.42;101634.16;4989981;28;20110;-89
2022/01/30 05:15:47;;;;;;;11.25;6.38;;;;;;;5.04;66.49;101616.63;4991648;28;20057;-88
2022/01/30 05:18:25;;;;;;;9.07;6.07;;;;;;;5.07;66.86;101648.84;4991585;28;20034;-89
2022/01/30 05:20:59;;;;;;;11.35;6.32;;;;;;;5.12;66.77;101643.19;4991634;28;20048;-89
2022/01/30 05:23:35;;;;;;;10.32;6.22;;;;;;;4.97;66.61;101601.31;4992128;28;20073;-88
2022/01/30 05:26:10;;;;;;;9.80;6.25;;;;;;;5.19;66.47;101638.72;4972270;28;20458;-89
2022/01/30 05:28:36;;;;;;;9.43;6.35;;;;;;;5.00;66.37;101609.34;4956153;28;20074;-89
2022/01/30 05:31:01;;;;;;;10.73;6.13;;;;;;;4.92;66.89;101607.75;4968727;28;20015;-87
2022/01/30 05:33:28;;;;;;;9.25;6.35;;;;;;;4.86;67.24;101614.19;4980547;28;20040;-88
2022/01/30 05:35:55;;;;;;;10.07;6.53;;;;;;;4.83;67.18;101592.31;4996969;28;20027;-87
2022/01/30 05:38:23;;;;;;;10.10;5.97;;;;;;;5.00;67.08;101632.66;5013196;28;20026;-86
2022/01/30 05:40:48;;;;;;;9.73;6.38;;;;;;;4.82;66.87;101582.72;4997240;28;20031;-87
2022/01/30 05:43:14;;;;;;;11.25;6.60;;;;;;;4.80;66.30;101573.91;5003146;28;20041;-87
2022/01/30 05:45:46;;;;;;;11.05;6.63;;;;;;;5.07;66.90;101622.06;4987117;28;20089;-88
2022/01/30 05:48:16;;;;;;;9.13;5.85;;;;;;;4.81;66.36;101550.75;4996900;28;20406;-87
2022/01/30 05:50:42;;;;;;;10.15;6.40;;;;;;;5.21;65.98;101624.22;4997738;28;20038;-88
2022/01/30 05:53:09;;;;;;;11.18;6.57;;;;;;;5.13;66.30;101614.84;4981271;28;20121;-88
2022/01/30 05:55:37;;;;;;;9.90;6.18;;;;;;;5.18;65.90;101605.78;4997592;28;20521;-89
2022/01/30 05:58:04;;;;;;;8.73;5.80;;;;;;;4.75;66.14;101529.50;4981029;28;20041;-86
2022/01/30 06:00:33;;;;;;;10.13;6.38;;;;;;;4.97;66.17;101565.97;4980334;28;20161;-88
2022/01/30 06:03:02;;;;;;;10.95;7.03;;;;;;;5.13;66.49;101596.72;4981133;28;20034;-88
2022/01/30 06:05:30;;;;;;;12.52;7.20;;;;;;;4.97;66.34;101565.97;4981350;28;20026;-88
2022/01/30 06:07:57;;;;;;;12.18;6.97;;;;;;;5.15;65.92;101584.84;4997142;28;20026;-88
2022/01/30 06:10:27;;;;;;;12.43;7.10;;;;;;;5.12;66.15;101581.94;4997468;28;20038;-88
2022/01/30 06:13:10;;;;;;;11.82;7.15;;;;;;;4.82;66.03;101546.50;5013781;28;20022;-89
2022/01/30 06:15:38;;;;;;;12.07;7.28;;;;;;;4.93;66.22;101545.75;5013464;28;20054;-89
2022/01/30 06:18:05;;;;;;;11.68;7.30;;;;;;;5.07;66.52;101578.97;4977909;28;20832;-88
2022/01/30 06:20:55;;;;;;;11.32;6.72;;;;;;;4.97;66.27;101567.66;4961866;28;20054;-88
2022/01/30 06:23:27;;;;;;;11.85;6.72;;;;;;;4.80;66.36;101523.06;4976449;28;20109;-88
2022/01/30 06:25:56;;;;;;;11.82;7.50;;;;;;;4.89;66.48;101538.53;4978492;28;20466;-88
2022/01/30 06:31:59;;;;;;;14.93;7.72;;;;;;;4.60;66.53;101479.00;4987107;28;20521;-89
2022/01/30 06:34:54;;;;;;;10.88;6.97;;;;;;;5.10;66.14;101540.41;4998338;28;20088;-95
2022/01/30 06:37:28;;;;;;;12.45;7.28;;;;;;;5.14;65.75;101536.41;4984494;28;20038;-93
2022/01/30 06:43:15;;;;;;;13.13;7.72;;;;;;;4.84;66.04;101488.91;4997725;28;20169;-95
2022/01/30 06:46:10;;;;;;;12.55;7.25;;;;;;;5.05;66.38;101531.31;4968375;28;20121;-95
2022/01/30 06:52:53;;;;;;;14.02;8.23;;;;;;;5.11;65.83;101502.47;4975508;28;20049;-93
2022/01/30 06:55:25;;;;;;;11.77;7.68;;;;;;;4.56;66.30;101432.94;5001333;28;20034;-92
2022/01/30 06:57:52;;;;;;;13.40;7.50;;;;;;;4.44;66.45;101431.06;4991860;28;20383;-91
2022/01/30 07:00:20;;;;;;;12.40;7.82;;;;;;;4.76;66.09;101476.06;4978035;28;20085;-92
2022/01/30 07:03:00;;;;;;;12.70;7.53;;;;;;;4.67;65.94;101476.19;4978609;28;20030;-94
2022/01/30 07:05:27;;;;;;;14.73;8.57;;;;;;;5.00;66.00;101524.84;4994319;28;20026;-93
2022/01/30 07:07:54;;;;;;;14.70;8.52;;;;;;;5.00;66.14;101527.44;4978386;28;20034;-92
2022/01/30 07:10:23;;;;;;;15.77;8.77;;;;;;;4.88;66.06;101503.03;4978385;28;20033;-93
2022/01/30 07:12:57;;;;;;;14.70;8.35;;;;;;;5.04;65.72;101519.16;4992398;28;20458;-92
2022/01/30 07:15:23;;;;;;;15.35;8.35;;;;;;;4.69;65.75;101465.19;4978555;28;20084;-87
2022/01/30 07:17:55;;;;;;;13.95;8.65;;;;;;;4.88;66.21;101505.63;4995326;28;20034;-94
2022/01/30 07:20:37;;;;;;;15.70;9.00;;;;;;;4.88;66.02;101487.53;4996417;28;20045;-96
2022/01/30 07:23:03;;;;;;;15.23;8.25;;;;;;;4.74;65.94;101459.50;4980126;28;20078;-88
2022/01/30 07:25:55;;;;;;;16.10;9.52;;;;;;;4.92;66.02;101501.66;4971093;28;20078;-90
2022/01/30 07:28:21;;;;;;;16.67;9.15;;;;;;;4.96;65.79;101507.22;4980713;28;20057;-88
2022/01/30 07:30:54;;;;;;;;;;;;;;;4.88;66.11;101505.63;4993312;28;20521;-88
2022/01/30 07:33:20;;;;;;;16.58;8.73;;;;;;;4.83;65.76;101502.66;4991156;28;19918;-86
2022/01/30 07:35:56;;;;;;;14.63;8.60;;;;;;;4.76;66.64;101535.59;5001796;28;20035;-89
2022/01/30 07:38:37;;;;;;;15.68;8.45;;;;;;;4.68;66.51;101497.03;4980844;28;20265;-92
2022/01/30 07:41:27;;;;;;;15.43;8.88;;;;;;;4.97;65.93;101536.59;4993668;28;20030;-91
2022/01/30 07:43:56;;;;;;;14.50;8.68;;;;;;;4.72;66.22;101507.63;4978375;28;20125;-96
2022/01/30 07:46:24;;;;;;;17.23;9.00;;;;;;;4.44;66.72;101472.44;4976817;28;20030;-89
2022/01/30 07:48:50;;;;;;;16.70;9.02;;;;;;;4.39;66.75;101460.78;4972036;28;20031;-90
2022/01/30 07:51:16;;;;;;;14.75;9.05;;;;;;;4.32;67.05;101461.03;4975768;28;20517;-89
2022/01/30 07:53:42;;;;;;;14.55;8.40;;;;;;;4.61;66.68;101492.03;4961627;28;20069;-91
2022/01/30 07:56:08;;;;;;;14.50;8.23;;;;;;;4.38;66.54;101451.22;4985479;28;20456;-89
2022/01/30 07:58:47;;;;;;;16.60;9.18;;;;;;;4.44;66.94;101467.25;5000427;28;20050;-96
2022/01/30 08:07:40;;;;;;;15.45;8.63;;;;;;;3.86;66.49;101333.72;5024987;28;20041;-95
2022/01/30 08:10:05;;;;;;;15.38;8.93;;;;;;;4.77;66.67;101501.19;5225171;23;21358;-87
2022/01/30 08:12:38;;;;;;;15.63;9.00;;;;;;;4.93;66.45;101482.75;4973312;28;20032;-90
2022/01/30 08:15:06;;;;;;;15.32;8.75;;;;;;;4.58;66.32;101421.94;4973323;28;20031;-95
2022/01/30 08:23:34;;;;;;;16.88;8.88;;;;;;;3.97;66.73;101334.69;5107075;23;20050;-95
2022/01/30 08:29:22;;;;;;;14.63;8.50;;;;;;;4.84;66.73;101467.31;4987711;28;19918;-96
2022/01/30 08:31:50;;;;;;;15.18;8.75;;;;;;;4.82;66.48;101464.59;4987413;28;20039;-96
2022/01/30 08:34:22;;;;;;;15.10;8.60;;;;;;;4.77;66.69;101458.13;5012169;28;20094;-95
2022/01/30 08:36:53;;;;;;;14.02;8.05;;;;;;;4.82;67.13;101459.41;5001477;28;20045;-95
2022/01/30 08:39:32;;;;;;;17.20;8.98;;;;;;;3.91;66.27;101269.53;4999956;28;20449;-96
2022/01/30 08:42:06;;;;;;;16.38;9.25;;;;;;;4.97;66.16;101441.72;4988775;28;20032;-93
2022/01/30 08:44:32;;;;;;;15.40;8.80;;;;;;;4.85;66.51;101435.50;4988956;28;20017;-95
2022/01/30 08:47:22;;;;;;;16.48;9.55;;;;;;;3.88;66.20;101287.38;4996073;28;20019;-95
2022/01/30 09:36:44;;;;;;;22.15;11.38;;;;;;;4.80;65.76;101398.84;549507;23;20305;-87
2022/01/30 09:39:16;;;;;;;19.15;10.75;;;;;;;4.51;66.05;101364.38;5030312;28;20072;-94
2022/01/30 09:41:54;;;;;;;21.00;12.15;;;;;;;4.66;66.10;101401.94;5004944;28;20046;-95
2022/01/30 09:44:22;;;;;;;20.13;11.48;;;;;;;4.77;65.62;101396.00;5003750;28;20030;-95
2022/01/30 09:46:52;;;;;;;20.88;11.90;;;;;;;4.63;66.06;101402.56;5016689;28;20034;-94
2022/01/30 09:52:39;;;;;;;20.20;11.60;;;;;;;4.69;66.31;101366.88;5019228;28;20056;-95
2022/01/30 09:55:12;;;;;;;27.45;13.70;;;;;;;4.78;65.48;101383.97;5022204;28;20029;-94
2022/01/30 09:57:57;;;;;;;28.33;13.70;;;;;;;4.85;65.90;101381.16;4986091;28;20045;-96
2022/01/30 10:00:29;;;;;;;26.10;12.47;;;;;;;4.71;65.91;101369.59;5019765;28;20042;-96
2022/01/30 10:03:23;;;;;;;24.40;12.43;;;;;;;4.73;65.93;101370.66;5007101;28;20033;-95
2022/01/30 10:06:16;;;;;;;21.73;12.15;;;;;;;4.87;65.75;101369.28;4999968;28;20117;-94
2022/01/30 10:09:35;;;;;;;21.33;11.98;;;;;;;4.70;65.97;101367.81;5025488;28;20034;-94
2022/01/30 10:14:59;;;;;;;21.40;12.13;;;;;;;4.68;65.41;101336.63;5012832;28;20057;-94
2022/01/30 10:20:26;;;;;;;22.95;12.10;;;;;;;4.89;65.21;101366.03;4966684;28;20466;-93
2022/01/30 10:23:08;;;;;;;22.33;11.57;;;;;;;4.92;65.66;101356.72;4939181;29;20047;-94
2022/01/30 10:25:40;;;;;;;19.98;10.93;;;;;;;4.34;65.06;101252.63;4948100;29;20263;-94
2022/01/30 10:31:06;;;;;;;20.33;11.27;;;;;;;4.62;66.59;101340.38;5025786;23;20058;-95
2022/01/30 10:34:15;;;;;;;21.23;11.10;;;;;;;4.63;66.49;101340.47;5055763;23;20050;-95
2022/01/30 10:36:49;;;;;;;20.85;11.35;;;;;;;4.74;66.11;101340.50;5036017;28;20072;-95
2022/01/30 10:39:47;;;;;;;22.58;11.63;;;;;;;3.50;66.16;101152.28;5049190;22;20040;-95
2022/01/30 10:42:30;;;;;;;19.75;10.90;;;;;;;3.73;65.91;101164.63;5071737;22;20054;-95
2022/01/30 10:44:56;;;;;;;21.20;12.70;;;;;;;3.62;66.40;101161.06;4961421;28;20413;-95
2022/01/30 10:47:25;;;;;;;20.27;12.00;;;;;;;3.75;65.78;101169.13;4966368;28;20025;-96
2022/01/30 10:49:53;;;;;;;22.45;12.77;;;;;;;3.87;66.03;101161.53;4967231;28;20030;-95
2022/01/30 10:52:19;;;;;;;23.98;12.77;;;;;;;4.45;65.57;101248.38;4952095;28;20056;-95
2022/01/30 10:57:17;;;;;;;22.23;12.52;;;;;;;3.85;65.69;101134.66;5008672;28;20041;-96
2022/01/30 10:59:53;;;;;;;20.85;11.98;;;;;;;4.03;65.95;101135.34;5031763;23;20042;-95
2022/01/30 11:02:22;;;;;;;19.40;11.60;;;;;;;3.72;66.01;101086.22;5185875;23;20069;-96
2022/01/30 11:28:05;;;;;;;19.38;10.65;;;;;;;3.29;68.21;100988.69;4976775;28;20069;-93
2022/01/30 11:30:38;;;;;;;20.02;10.85;;;;;;;4.21;68.52;101161.84;4950237;28;20037;-96
2022/01/30 11:33:32;;;;;;;21.75;11.40;;;;;;;4.22;68.38;101164.59;4967157;28;20129;-95
2022/01/30 11:36:06;;;;;;;18.00;10.73;;;;;;;4.36;67.97;101159.66;4971425;28;20034;-95
2022/01/30 11:38:43;;;;;;;18.63;10.90;;;;;;;4.28;68.30;101143.53;4979704;28;20094;-94
2022/01/30 11:41:31;;;;;;;;;;;;;;;4.21;68.46;101141.19;4980133;28;20030;-94
2022/01/30 11:44:18;;;;;;;18.65;10.48;;;;;;;4.26;68.26;101127.88;4967342;28;19906;-93
2022/01/30 11:47:01;;;;;;;16.75;9.93;;;;;;;4.26;68.38;101120.13;4982370;28;20015;-94
2022/01/30 11:49:40;;;;;;;16.50;10.07;;;;;;;4.24;68.27;101103.59;4985778;28;20536;-93
2022/01/30 11:52:16;;;;;;;20.17;10.50;;;;;;;3.23;68.26;100924.53;5000390;28;20038;-96
2022/01/30 11:55:01;;;;;;;15.85;10.05;;;;;;;4.19;67.87;101081.63;4962924;28;20506;-94
2022/01/30 11:57:47;;;;;;;15.20;10.00;;;;;;;4.23;68.13;101099.19;4946560;28;20031;-93
2022/01/30 12:00:43;;;;;;;16.92;10.25;;;;;;;4.21;68.82;101086.91;4960852;28;20037;-96
2022/01/30 12:05:52;;;;;;;19.88;10.23;;;;;;;3.94;68.05;101029.56;5237084;23;20034;-95
2022/01/30 12:08:45;;;;;;;16.08;9.85;;;;;;;4.21;68.18;101067.16;4987226;28;20084;-94
2022/01/30 12:11:47;;;;;;;17.23;10.23;;;;;;;4.28;67.99;101063.41;5007921;28;20029;-93
2022/01/30 12:14:43;;;;;;;19.00;9.48;;;;;;;4.19;68.09;101057.44;5009105;28;20034;-96
2022/01/30 12:25:37;;;;;;;;;;;;;;;4.20;67.89;101048.91;5012808;28;20050;-92
2022/01/30 12:28:05;;;;;;;16.65;9.07;;;;;;;3.18;68.31;100867.38;4985472;28;19989;-94
2022/01/30 12:30:35;;;;;;;16.42;9.43;;;;;;;3.34;67.99;100882.44;4992909;28;20076;-95
2022/01/30 12:36:15;;;;;;;15.73;9.52;;;;;;;3.25;68.20;100889.44;5003871;28;20039;-95
2022/01/30 12:39:30;;;;;;;15.93;9.50;;;;;;;4.43;67.75;101069.84;4978883;28;20038;-95
2022/01/30 12:42:16;;;;;;;16.20;9.25;;;;;;;4.06;67.83;101019.31;4993970;28;20161;-96
2022/01/30 12:44:49;;;;;;;16.30;9.23;;;;;;;3.32;68.14;100889.16;4980092;28;20039;-95
2022/01/30 12:47:23;;;;;;;14.55;9.60;;;;;;;3.32;67.84;100899.50;4977987;28;20026;-96
2022/01/30 12:49:59;;;;;;;16.17;9.38;;;;;;;4.44;67.66;101038.00;4994521;28;20053;-96
2022/01/30 12:52:36;;;;;;;15.50;8.90;;;;;;;3.54;67.15;100873.81;4980988;28;20035;-96
2022/01/30 13:03:22;;;;;;;13.20;8.45;;;;;;;4.49;67.12;100997.94;5449882;22;20026;-95
2022/01/30 13:06:33;;;;;;;15.73;8.73;;;;;;;3.60;67.54;100842.44;5520503;23;20062;-94
2022/01/30 13:09:06;;;;;;;17.17;9.65;;;;;;;4.01;67.04;100906.94;5161910;22;20084;-96
2022/01/30 13:15:10;;;;;;;16.70;9.65;;;;;;;4.42;67.71;100986.97;5395599;23;20053;-95
2022/01/30 13:17:37;;;;;;;16.35;9.68;;;;;;;3.88;67.12;100862.00;4998708;28;20034;-95
2022/01/30 13:20:04;;;;;;;14.30;9.25;;;;;;;3.37;67.88;100799.25;5063374;23;20042;-95
2022/01/30 13:22:53;;;;;;;17.05;9.02;;;;;;;4.85;66.84;100960.31;4983847;28;20058;-95
2022/01/30 13:25:29;;;;;;;14.98;8.90;;;;;;;4.33;66.58;100881.13;4958389;28;20111;-94
2022/01/30 13:28:30;;;;;;;14.88;8.88;;;;;;;4.79;66.10;100953.75;4989712;28;20057;-95
2022/01/30 13:31:14;;;;;;;13.88;8.48;;;;;;;3.52;67.36;100782.44;5004574;28;20035;-95
2022/01/30 13:33:44;;;;;;;14.82;8.30;;;;;;;4.26;67.32;100915.03;4966310;28;20035;-96
2022/01/30 13:36:31;;;;;;;14.40;8.63;;;;;;;3.85;67.87;100847.94;4967321;28;20050;-95
2022/01/30 13:39:14;;;;;;;15.52;8.95;;;;;;;4.40;68.06;100932.56;4990513;28;20120;-94
2022/01/30 13:49:49;;;;;;;14.65;8.40;;;;;;;4.58;67.37;100915.03;4978956;28;20073;-94
2022/01/30 13:52:51;;;;;;;14.63;8.43;;;;;;;4.45;67.44;100904.50;4976390;28;20414;-92
2022/01/30 13:55:16;;;;;;;15.23;8.40;;;;;;;4.30;68.24;100878.31;4977957;28;20042;-90
2022/01/30 13:58:35;;;;;;;13.88;8.35;;;;;;;4.56;67.63;100900.16;4977713;28;20495;-92
2022/01/30 14:01:01;;;;;;;15.88;8.60;;;;;;;4.32;67.58;100884.50;5447170;23;20054;-90
2022/01/30 14:04:03;;;;;;;14.48;8.23;;;;;;;4.42;67.85;100917.16;5008974;28;20035;-95
2022/01/30 14:06:33;;;;;;;14.00;8.02;;;;;;;4.13;67.76;100848.50;4999054;28;20092;-94
2022/01/30 14:09:09;;;;;;;15.02;8.15;;;;;;;3.85;67.85;100807.53;5000790;28;20029;-95
2022/01/30 14:12:14;;;;;;;13.20;8.23;;;;;;;4.77;67.08;100880.28;5001092;28;20036;-96
2022/01/30 14:32:21;;;;;;;13.10;7.53;;;;;;;3.98;67.58;100793.91;5013973;28;20058;-95
2022/01/30 14:34:48;;;;;;;13.48;7.63;;;;;;;3.93;67.59;100771.06;4980458;28;20069;-92
2022/01/30 14:37:24;;;;;;;11.93;7.38;;;;;;;3.62;67.98;100725.59;5059106;23;20054;-95
2022/01/30 14:42:26;;;;;;;14.20;7.80;;;;;;;3.78;68.58;100786.22;5647348;23;20057;-96
2022/01/30 14:48:00;;;;;;;11.05;7.22;;;;;;;3.54;67.78;100734.41;5299711;22;19963;-94
2022/01/30 14:59:28;;;;;;;11.38;7.05;;;;;;;3.37;68.42;100712.38;5245819;22;20073;-95
2022/01/30 15:01:56;;;;;;;10.48;7.07;;;;;;;3.70;68.73;100767.53;4976098;28;20055;-95
2022/01/30 15:04:24;;;;;;;10.70;7.10;;;;;;;4.43;68.25;100859.50;4976989;28;20075;-96
2022/01/30 15:06:54;;;;;;;10.93;6.93;;;;;;;3.81;68.26;100771.91;4992058;28;20037;-96
2022/01/30 15:09:22;;;;;;;10.60;6.93;;;;;;;3.39;68.87;100691.88;4980475;28;20034;-94
2022/01/30 15:12:28;;;;;;;11.13;6.97;;;;;;;4.34;68.77;100845.81;4996902;28;20030;-96
2022/01/30 15:14:54;;;;;;;12.57;6.97;;;;;;;4.34;68.40;100843.25;5023421;28;20022;-95
2022/01/30 15:17:31;;;;;;;10.25;6.60;;;;;;;4.19;68.50;100823.16;4999119;28;20014;-95
2022/01/30 15:19:59;;;;;;;11.45;6.97;;;;;;;4.45;68.37;100840.75;4979484;28;20065;-94
2022/01/30 15:22:25;;;;;;;11.77;6.78;;;;;;;4.21;68.56;100813.84;4994933;28;20030;-95
2022/01/30 15:24:54;;;;;;;13.30;7.53;;;;;;;4.05;68.84;100809.13;4975680;28;20053;-92
2022/01/30 15:27:22;;;;;;;12.10;7.40;;;;;;;4.22;68.83;100838.00;4960566;28;20035;-94
2022/01/30 15:29:49;;;;;;;11.43;7.15;;;;;;;4.26;68.55;100835.78;4979706;28;20047;-96
2022/01/30 15:32:15;;;;;;;12.93;7.80;;;;;;;4.19;68.20;100814.47;4979709;28;20573;-93
2022/01/30 15:34:42;;;;;;;11.32;6.85;;;;;;;3.76;68.36;100731.84;4980759;28;20066;-94
2022/01/30 15:37:11;;;;;;;10.50;6.95;;;;;;;4.56;67.78;100849.34;4978799;28;20472;-95
2022/01/30 15:39:59;;;;;;;13.32;7.28;;;;;;;4.71;67.55;100848.75;4978339;28;20034;-96
2022/01/30 15:42:27;;;;;;;9.90;6.38;;;;;;;4.06;68.03;100774.75;4982802;28;20039;-96
2022/01/30 15:50:27;;;;;;;12.00;6.88;;;;;;;4.08;68.04;100775.78;4977501;28;20078;-95
2022/01/30 15:53:00;;;;;;;;;;;;;;;4.58;67.78;100845.19;4963514;28;20034;-96
2022/01/30 15:55:30;;;;;;;9.63;6.30;;;;;;;4.38;67.34;100794.50;4981663;23;1851229;-95
2022/01/30 15:58:01;;;;;;;10.15;6.40;;;;;;;3.49;67.74;100671.16;5017608;28;20125;-94
2022/01/30 16:00:29;;;;;;;10.20;6.50;;;;;;;3.75;67.15;100683.59;5001477;28;20030;-94
2022/01/30 16:03:12;;;;;;;13.02;6.57;;;;;;;3.95;67.92;100764.34;4979415;28;20458;-93
2022/01/30 16:05:48;;;;;;;10.38;6.35;;;;;;;4.01;67.81;100759.66;4982144;28;20034;-91
2022/01/30 16:08:16;;;;;;;11.63;6.72;;;;;;;4.49;68.10;100824.69;4993958;28;20441;-88
2022/01/30 16:16:41;;;;;;;9.82;6.35;;;;;;;4.26;68.03;100786.66;5009410;28;20045;-95
2022/01/30 16:21:50;;;;;;;10.95;6.82;;;;;;;3.64;67.62;100676.66;5313382;23;20054;-90
2022/01/30 16:27:07;;;;;;;10.25;6.47;;;;;;;4.61;67.93;100829.91;6094821;23;20076;31
2022/01/30 16:32:37;;;;;;;12.57;7.00;;;;;;;4.44;68.11;100810.47;5760391;23;20055;-92
2022/01/30 16:35:07;;;;;;;8.35;6.00;;;;;;;4.62;67.60;100799.78;4963132;28;20090;-92
2022/01/30 16:37:57;;;;;;;10.77;6.72;;;;;;;4.44;67.85;100823.41;4960702;28;20034;-96
2022/01/30 16:40:30;;;;;;;10.57;6.68;;;;;;;4.48;67.99;100827.16;4961011;28;20034;-95
2022/01/30 16:52:38;;;;;;;9.80;6.28;;;;;;;4.30;67.86;100816.25;5145082;23;20192;-93
2022/01/30 16:55:24;;;;;;;10.98;7.05;;;;;;;4.57;67.59;100827.88;5006889;28;20053;-92
2022/01/30 16:57:54;;;;;;;11.90;6.78;;;;;;;4.45;68.04;100826.91;4995200;28;20180;-92
2022/01/30 17:03:03;;;;;;;11.90;6.95;;;;;;;3.77;67.39;100700.09;5723370;22;20058;-96
2022/01/30 17:06:03;;;;;;;11.68;6.88;;;;;;;4.42;67.48;100824.06;5100310;23;20058;-94